createdAt,value
2023-02-15T00:00:55.021Z,56.10
2023-02-15T00:04:57.779Z,43.95
2023-02-15T00:08:59.696Z,54.33
2023-02-15T00:13:01.360Z,49.45
2023-02-15T00:17:02.814Z,52.00
2023-02-15T00:21:07.113Z,51.47
2023-02-15T00:25:08.774Z,57.72
2023-02-15T00:29:11.730Z,49.88
2023-02-15T00:33:13.151Z,41.92
2023-02-15T00:37:15.971Z,51.85
2023-02-15T00:41:17.419Z,51.75
2023-02-15T00:45:18.853Z,50.40
2023-02-15T00:49:20.274Z,54.33
2023-02-15T00:53:23.318Z,47.50
2023-02-15T00:57:24.760Z,47.53
2023-02-15T01:01:26.259Z,51.25
2023-02-15T01:05:27.812Z,52.80
2023-02-15T01:09:30.625Z,44.35
2023-02-15T01:13:32.273Z,47.05
2023-02-15T01:17:33.775Z,50.85
2023-02-15T01:21:35.510Z,50.53
2023-02-15T01:25:38.387Z,50.80
2023-02-15T01:29:39.830Z,48.72
2023-02-15T01:33:41.723Z,49.15
2023-02-15T01:37:43.280Z,50.30
2023-02-15T01:41:46.097Z,41.35
2023-02-15T01:45:49.850Z,47.70
2023-02-15T01:49:59.438Z,46.60
2023-02-15T01:54:06.621Z,48.45
2023-02-15T01:58:10.036Z,50.80
2023-02-15T02:02:15.691Z,46.05
2023-02-15T02:06:17.871Z,36.78
2023-02-15T02:10:22.599Z,49.42
2023-02-15T02:14:26.445Z,55.83
2023-02-15T02:18:42.571Z,47.38
2023-02-15T02:23:08.752Z,38.67
2023-02-15T02:27:30.406Z,46.42
2023-02-15T02:32:06.054Z,45.90
2023-02-15T02:36:16.897Z,48.55
2023-02-15T02:40:22.152Z,53.03
2023-02-15T02:44:29.702Z,52.25
2023-02-15T02:48:33.788Z,57.92
2023-02-15T02:52:40.526Z,34.15
2023-02-15T02:56:46.517Z,45.67
2023-02-15T03:00:53.766Z,49.33
2023-02-15T03:05:03.162Z,55.10
2023-02-15T03:09:11.535Z,54.03
2023-02-15T03:13:13.068Z,47.72
2023-02-15T03:17:16.755Z,53.67
2023-02-15T03:21:18.294Z,45.20
2023-02-15T03:25:24.449Z,44.20
2023-02-15T03:29:28.667Z,42.58
2023-02-15T03:33:30.791Z,45.92
2023-02-15T03:37:37.393Z,38.80
2023-02-15T03:45:48.607Z,40.25
2023-02-15T03:49:54.539Z,38.60
2023-02-15T03:53:58.116Z,39.92
2023-02-15T03:58:01.177Z,41.40
2023-02-15T04:02:16.497Z,40.45
2023-02-15T04:06:17.978Z,42.25
2023-02-15T04:10:19.434Z,49.45
2023-02-15T04:14:22.219Z,36.17
2023-02-15T04:18:23.716Z,38.75
2023-02-15T04:22:25.150Z,37.05
2023-02-15T04:26:26.582Z,37.42
2023-02-15T04:30:29.432Z,43.80
2023-02-15T04:34:30.983Z,36.47
2023-02-15T04:38:32.428Z,39.28
2023-02-15T04:42:34.247Z,33.40
2023-02-15T04:46:37.480Z,37.38
2023-02-15T04:50:38.936Z,34.72
2023-02-15T04:54:40.399Z,34.50
2023-02-15T04:58:42.073Z,34.75
2023-02-15T05:02:45.198Z,34.63
2023-02-15T05:06:46.744Z,38.38
2023-02-15T05:10:48.596Z,36.05
2023-02-15T05:14:50.073Z,34.45
2023-02-15T05:18:52.887Z,33.33
2023-02-15T05:22:54.381Z,34.15
2023-02-15T05:26:55.837Z,33.67
2023-02-15T05:31:03.833Z,26.15
2023-02-15T05:35:07.730Z,33.88
2023-02-15T05:39:09.163Z,32.33
2023-02-15T05:43:10.624Z,34.85
2023-02-15T05:47:12.127Z,30.25
2023-02-15T05:51:14.934Z,32.15
2023-02-15T05:55:16.663Z,31.80
2023-02-15T05:59:18.308Z,28.77
2023-02-15T06:03:19.883Z,32.97
2023-02-15T06:07:22.803Z,29.08
2023-02-15T06:11:24.450Z,32.00
2023-02-15T06:15:26.008Z,35.42
2023-02-15T06:19:27.632Z,33.30
2023-02-15T06:23:30.611Z,37.55
2023-02-15T06:27:32.076Z,32.78
2023-02-15T06:31:33.604Z,25.20
2023-02-15T06:35:35.225Z,32.33
2023-02-15T06:39:38.001Z,34.00
2023-02-15T06:43:40.930Z,44.28
2023-02-15T06:47:42.553Z,31.08
2023-02-15T06:51:44.049Z,33.85
2023-02-15T06:55:46.857Z,22.77
2023-02-15T06:59:48.331Z,32.35
2023-02-15T07:03:50.182Z,34.75
2023-02-15T07:07:51.733Z,31.38
2023-02-15T07:11:54.559Z,25.35
2023-02-15T07:15:56.057Z,23.42
2023-02-15T07:19:57.550Z,31.15
2023-02-15T07:23:59.452Z,38.85
2023-02-15T07:28:04.276Z,27.58
2023-02-15T07:32:05.731Z,25.33
2023-02-15T07:36:08.393Z,25.48
2023-02-15T07:40:10.480Z,24.10
2023-02-15T07:44:14.383Z,18.65
2023-02-15T07:48:15.803Z,26.83
2023-02-15T07:52:17.260Z,28.42
2023-02-15T07:56:18.703Z,23.00
2023-02-15T08:00:22.979Z,25.00
2023-02-15T08:04:25.031Z,25.73
2023-02-15T08:08:27.272Z,19.33
2023-02-15T08:12:29.025Z,20.80
2023-02-15T08:16:34.247Z,20.23
2023-02-15T08:20:35.702Z,22.58
2023-02-15T08:24:38.053Z,18.92
2023-02-15T08:28:39.997Z,19.13
2023-02-15T08:32:43.135Z,19.38
2023-02-15T08:36:45.196Z,26.20
2023-02-15T08:40:46.633Z,22.90
2023-02-15T08:44:49.484Z,15.93
2023-02-15T08:48:53.274Z,22.95
2023-02-15T08:52:56.760Z,18.98
2023-02-15T08:56:58.352Z,20.88
2023-02-15T09:01:00.619Z,19.60
2023-02-15T09:05:04.002Z,23.40
2023-02-15T09:09:05.820Z,20.35
2023-02-15T09:13:07.676Z,21.70
2023-02-15T09:17:09.273Z,17.75
2023-02-15T09:21:14.539Z,24.20
2023-02-15T09:25:16.242Z,17.55
2023-02-15T09:29:19.254Z,18.80
2023-02-15T09:33:20.723Z,17.05
2023-02-15T09:37:23.533Z,16.15
2023-02-15T09:41:59.233Z,21.17
2023-02-15T09:46:19.605Z,16.92
2023-02-15T09:50:29.471Z,18.63
2023-02-15T09:54:57.277Z,16.23
2023-02-15T09:59:08.426Z,16.95
2023-02-15T10:03:38.311Z,18.83
2023-02-15T10:08:00.894Z,17.75
2023-02-15T10:12:17.532Z,22.50
2023-02-15T10:16:28.013Z,17.30
2023-02-15T10:20:38.856Z,17.48
2023-02-15T10:24:53.421Z,20.38
2023-02-15T10:29:01.994Z,19.10
2023-02-15T10:33:09.529Z,22.42
2023-02-15T10:37:41.727Z,19.02
2023-02-15T10:41:47.937Z,21.17
2023-02-15T10:50:21.518Z,21.30
2023-02-15T10:54:31.367Z,22.08
2023-02-15T10:58:44.083Z,19.95
2023-02-15T11:03:09.791Z,20.10
2023-02-15T11:07:18.386Z,18.90
2023-02-15T11:11:24.252Z,24.17
2023-02-15T11:15:32.184Z,20.88
2023-02-15T11:19:38.549Z,22.55
2023-02-15T11:23:44.043Z,19.33
2023-02-15T11:27:47.718Z,19.25
2023-02-15T11:31:54.768Z,17.83
2023-02-15T11:36:02.694Z,21.05
2023-02-15T11:40:18.544Z,17.83
2023-02-15T11:44:24.048Z,19.33
2023-02-15T11:48:25.671Z,18.33
2023-02-15T11:52:28.509Z,20.40
2023-02-15T11:56:32.915Z,21.50
2023-02-15T12:00:36.529Z,20.40
2023-02-15T12:04:44.013Z,20.27
2023-02-15T12:08:53.225Z,16.92
2023-02-15T12:13:10.924Z,18.40
2023-02-15T12:17:14.485Z,13.75
2023-02-15T12:21:27.503Z,14.10
2023-02-15T12:25:36.398Z,15.05
2023-02-15T12:29:42.651Z,15.32
2023-02-15T12:33:44.736Z,16.20
2023-02-15T12:37:54.681Z,19.60
2023-02-15T12:42:15.077Z,18.80
2023-02-15T12:46:22.994Z,19.88
2023-02-15T12:50:25.500Z,17.90
2023-02-15T12:54:31.430Z,18.77
2023-02-15T12:58:35.807Z,15.57
2023-02-15T13:02:44.162Z,20.15
2023-02-15T13:06:50.048Z,15.90
2023-02-15T13:10:56.808Z,15.38
2023-02-15T13:14:59.648Z,20.85
2023-02-15T13:19:05.450Z,16.83
2023-02-15T13:23:25.241Z,15.77
2023-02-15T13:27:32.600Z,16.75
2023-02-15T13:31:36.948Z,16.33
2023-02-15T13:35:42.967Z,20.60
2023-02-15T13:39:49.863Z,14.55
2023-02-15T13:44:02.637Z,17.40
2023-02-15T13:48:16.870Z,18.52
2023-02-15T13:52:21.608Z,18.17
2023-02-15T13:56:32.149Z,16.45
2023-02-15T14:00:44.810Z,16.38
2023-02-15T14:05:04.976Z,19.70
2023-02-15T14:09:17.725Z,18.92
2023-02-15T14:13:44.310Z,18.27
2023-02-15T14:17:56.401Z,18.77
2023-02-15T14:22:02.885Z,22.27
2023-02-15T14:26:10.762Z,21.08
2023-02-15T14:30:19.624Z,19.02
2023-02-15T14:34:25.450Z,21.63
2023-02-15T14:38:43.278Z,24.20
2023-02-15T14:42:54.534Z,20.48
2023-02-15T14:47:02.316Z,19.85
2023-02-15T14:51:05.687Z,17.80
2023-02-15T14:55:08.933Z,19.02
2023-02-15T14:59:19.987Z,19.08
2023-02-15T15:03:25.411Z,20.35
2023-02-15T15:07:29.441Z,19.92
2023-02-15T15:11:50.026Z,22.23
2023-02-15T15:15:54.030Z,24.13
2023-02-15T15:20:00.019Z,27.20
2023-02-15T15:24:01.591Z,26.88
2023-02-15T15:28:04.420Z,25.77
2023-02-15T15:32:10.720Z,24.30
2023-02-15T15:36:32.930Z,25.33
2023-02-15T15:40:49.953Z,24.02
2023-02-15T15:45:18.490Z,32.92
2023-02-15T15:49:22.434Z,25.42
2023-02-15T15:53:26.380Z,28.77
2023-02-15T15:57:30.784Z,33.30
2023-02-15T16:01:39.230Z,31.00
2023-02-15T16:05:41.125Z,27.50
2023-02-15T16:09:53.913Z,26.92
2023-02-15T16:13:55.898Z,26.25
2023-02-15T16:18:00.543Z,31.45
2023-02-15T16:22:03.730Z,32.28
2023-02-15T16:26:13.070Z,27.50
2023-02-15T16:30:23.100Z,28.17
2023-02-15T16:34:26.335Z,27.20
2023-02-15T16:39:02.682Z,30.83
2023-02-15T16:43:07.193Z,28.98
2023-02-15T16:47:16.999Z,25.38
2023-02-15T16:51:27.579Z,30.88
2023-02-15T16:55:36.362Z,29.48
2023-02-15T16:59:41.573Z,35.30
2023-02-15T17:03:43.545Z,28.90
2023-02-15T17:08:04.061Z,27.77
2023-02-15T17:12:05.793Z,25.88
2023-02-15T17:16:27.620Z,34.03
2023-02-15T17:20:31.172Z,31.27
2023-02-15T17:24:38.637Z,35.50
2023-02-15T17:28:47.479Z,42.63
2023-02-15T17:32:54.683Z,33.97
2023-02-15T17:36:59.489Z,39.03
2023-02-15T17:41:02.624Z,33.33
2023-02-15T17:45:04.810Z,35.28
2023-02-15T17:49:07.271Z,40.22
2023-02-15T17:53:09.825Z,36.17
2023-02-15T17:57:14.565Z,32.42
2023-02-15T18:01:19.981Z,34.63
2023-02-15T18:05:22.155Z,35.15
2023-02-15T18:09:24.275Z,42.40
2023-02-15T18:13:27.096Z,35.97
2023-02-15T18:17:34.562Z,32.05
2023-02-15T18:21:36.039Z,37.92
2023-02-15T18:25:37.489Z,34.83
2023-02-15T18:29:41.202Z,30.58
2023-02-15T18:33:45.565Z,39.85
2023-02-15T18:37:47.450Z,34.60
2023-02-15T18:41:48.928Z,35.80
2023-02-15T18:45:51.866Z,36.75
2023-02-15T18:49:53.421Z,38.50
2023-02-15T18:53:55.109Z,42.70
2023-02-15T18:57:57.172Z,39.63
2023-02-15T19:02:00.242Z,32.80
2023-02-15T19:06:01.765Z,33.90
2023-02-15T19:10:05.953Z,35.70
2023-02-15T19:14:20.135Z,36.50
2023-02-15T19:18:22.936Z,36.78
2023-02-15T19:22:27.607Z,38.13
2023-02-15T19:26:43.357Z,36.05
2023-02-15T19:30:46.873Z,40.10
2023-02-15T19:34:49.699Z,42.85
2023-02-15T19:38:54.005Z,31.80
2023-02-15T19:42:55.890Z,33.58
2023-02-15T19:46:57.391Z,43.80
2023-02-15T19:51:00.264Z,33.97
2023-02-15T19:55:01.712Z,35.42
2023-02-15T19:59:03.146Z,36.88
2023-02-15T20:03:04.612Z,35.15
2023-02-15T20:07:20.111Z,36.50
2023-02-15T20:11:21.544Z,38.13
2023-02-15T20:15:25.429Z,43.92
2023-02-15T20:19:26.830Z,41.67
2023-02-15T20:23:32.399Z,36.03
2023-02-15T20:27:33.833Z,51.65
2023-02-15T20:31:35.374Z,37.17
2023-02-15T20:35:37.801Z,39.58
2023-02-15T20:39:40.566Z,43.05
2023-02-15T20:43:42.280Z,40.03
2023-02-15T20:47:43.759Z,45.83
2023-02-15T20:51:45.435Z,42.00
2023-02-15T20:55:48.309Z,36.00
2023-02-15T20:59:49.773Z,34.60
2023-02-15T21:03:51.519Z,39.13
2023-02-15T21:07:54.423Z,33.72
2023-02-15T21:11:59.317Z,35.35
2023-02-15T21:16:01.638Z,42.92
2023-02-15T21:20:03.101Z,33.67
2023-02-15T21:24:04.888Z,39.95
2023-02-15T21:28:17.067Z,38.70
2023-02-15T21:32:18.642Z,43.10
2023-02-15T21:36:23.303Z,36.80
2023-02-15T21:40:27.757Z,41.08
2023-02-15T21:44:30.767Z,35.85
2023-02-15T21:48:32.260Z,41.65
2023-02-15T21:52:33.959Z,35.85
2023-02-15T21:56:35.394Z,39.70
2023-02-15T22:00:38.283Z,40.05
2023-02-15T22:04:39.755Z,38.88
2023-02-15T22:08:41.282Z,30.88
2023-02-15T22:12:43.767Z,33.17
2023-02-15T22:16:46.533Z,38.25
2023-02-15T22:20:48.711Z,35.05
2023-02-15T22:24:50.164Z,33.15
2023-02-15T22:28:51.764Z,40.30
2023-02-15T22:32:55.450Z,37.42
2023-02-15T22:36:57.540Z,35.08
2023-02-15T22:41:03.365Z,36.40
2023-02-15T22:45:07.855Z,35.47
2023-02-15T22:49:12.908Z,35.55
2023-02-15T22:53:14.348Z,29.02
2023-02-15T22:57:19.568Z,34.42
2023-02-15T23:01:24.887Z,33.40
2023-02-15T23:05:29.803Z,30.13
2023-02-15T23:09:31.276Z,37.15
2023-02-15T23:13:33.398Z,39.92
2023-02-15T23:17:34.842Z,32.13
2023-02-15T23:21:37.642Z,33.17
2023-02-15T23:25:39.328Z,39.65
2023-02-15T23:29:40.823Z,27.52
2023-02-15T23:33:42.482Z,38.22
2023-02-15T23:37:45.462Z,32.03
2023-02-15T23:41:46.921Z,30.63
2023-02-15T23:45:48.643Z,33.05
2023-02-15T23:49:50.097Z,39.90
2023-02-15T23:53:52.894Z,30.23
2023-02-15T23:57:54.336Z,33.97
